Time;durP1;ratioP1;P1;durP2;ratioP2;P2;SDS_P1;SDS_P2;PMS_P1;PMS_P2;Temp;Humidity;BMP_temperature;BMP_pressure;BME280_temperature;BME280_humidity;BME280_pressure;Samples;Min_cycle;Max_cycle;Signal;HPM_P1;HPM_P2
2022/12/19 00:00:03;;;;;;;44.70;27.90;;;;;;;-1.01;100.00;101777.22;1030792;28;20316;-82
2022/12/19 00:00:43;;;;;;;46.03;28.80;;;;;;;-0.99;100.00;101777.91;1023887;28;20295;-82
2022/12/19 00:01:25;;;;;;;46.00;29.13;;;;;;;-0.97;100.00;101775.19;1019760;29;20310;-82
2022/12/19 00:01:57;;;;;;;48.47;29.55;;;;;;;-0.99;100.00;101780.53;1017384;29;20787;-82
2022/12/19 00:02:29;;;;;;;52.80;29.98;;;;;;;-0.99;100.00;101774.47;1026300;28;20298;-82
2022/12/19 00:03:01;;;;;;;44.15;28.25;;;;;;;-0.98;100.00;101784.81;1025777;28;20303;-82
2022/12/19 00:03:33;;;;;;;47.22;29.33;;;;;;;-1.02;100.00;101769.50;1020066;29;20781;-82
2022/12/19 00:04:07;;;;;;;47.48;28.20;;;;;;;-0.96;100.00;101790.75;1019098;29;20307;-82
2022/12/19 00:04:39;;;;;;;49.02;28.20;;;;;;;-0.97;100.00;101783.88;1014485;29;20048;-82
2022/12/19 00:05:12;;;;;;;45.83;27.27;;;;;;;-0.91;100.00;101769.47;1021079;29;20111;-82
2022/12/19 00:05:43;;;;;;;48.42;28.95;;;;;;;-0.89;100.00;101778.03;1020535;29;20378;-82
2022/12/19 00:06:16;;;;;;;47.05;29.77;;;;;;;-0.98;100.00;101778.75;1024359;28;20332;-82
2022/12/19 00:06:47;;;;;;;47.90;28.08;;;;;;;-1.02;100.00;101783.41;1023709;28;20306;-82
2022/12/19 00:07:19;;;;;;;48.20;30.52;;;;;;;-1.01;100.00;101774.59;1020893;28;20354;-83
2022/12/19 00:07:52;;;;;;;47.68;29.24;;;;;;;-1.00;100.00;101778.88;1023673;28;21019;-82
2022/12/19 00:08:24;;;;;;;52.45;30.27;;;;;;;-0.95;100.00;101779.34;1023976;28;20040;-82
2022/12/19 00:08:57;;;;;;;47.33;30.10;;;;;;;-0.93;100.00;101785.28;1024673;28;20653;-82
2022/12/19 00:09:29;;;;;;;48.42;27.17;;;;;;;-0.93;100.00;101777.44;1026893;28;20328;-83
2022/12/19 00:10:03;;;;;;;45.25;28.63;;;;;;;-0.90;100.00;101780.78;1026975;28;20310;-82
2022/12/19 00:10:34;;;;;;;48.22;30.08;;;;;;;-0.93;100.00;101779.22;1023988;28;20291;-82
2022/12/19 00:11:06;;;;;;;49.63;30.08;;;;;;;-0.97;100.00;101776.03;1020443;29;20758;-82
2022/12/19 00:11:38;;;;;;;52.00;30.20;;;;;;;-0.95;100.00;101776.72;1022792;29;20797;-74
2022/12/19 00:12:10;;;;;;;43.28;28.45;;;;;;;-0.93;100.00;101771.38;1017008;29;20303;-74
2022/12/19 00:12:49;;;;;;;46.35;27.92;;;;;;;-0.88;100.00;101768.41;1017650;29;20307;-82
2022/12/19 00:13:21;;;;;;;52.60;29.30;;;;;;;-0.89;100.00;101759.72;1015290;29;20388;-82
2022/12/19 00:13:53;;;;;;;47.13;26.98;;;;;;;-0.88;100.00;101768.41;1021186;29;20299;-82
2022/12/19 00:14:24;;;;;;;50.50;29.48;;;;;;;-0.83;100.00;101755.78;1015888;29;20315;-74
2022/12/19 00:14:56;;;;;;;48.25;28.42;;;;;;;-0.87;100.00;101764.84;1016398;29;20139;-74
2022/12/19 00:15:29;;;;;;;48.58;27.58;;;;;;;-0.85;100.00;101757.69;1015786;29;20300;-74
2022/12/19 00:16:02;;;;;;;48.10;28.63;;;;;;;-0.87;100.00;101760.44;1013487;29;20304;-74
2022/12/19 00:16:34;;;;;;;52.30;29.25;;;;;;;-0.86;100.00;101756.03;1019790;29;20307;-74
2022/12/19 00:17:09;;;;;;;47.72;27.98;;;;;;;-0.85;100.00;101763.75;1021686;29;20308;-77
2022/12/19 00:17:41;;;;;;;44.75;28.98;;;;;;;-0.84;100.00;101764.59;1016531;29;20666;-82
2022/12/19 00:18:13;;;;;;;46.67;27.58;;;;;;;-0.86;100.00;101759.47;1025477;28;20301;-77
2022/12/19 00:18:45;;;;;;;49.38;29.65;;;;;;;-0.82;100.00;101762.69;1027941;28;20301;-74
2022/12/19 00:19:17;;;;;;;46.72;27.55;;;;;;;-0.83;100.00;101766.25;1026403;28;20302;-74
2022/12/19 00:19:49;;;;;;;47.35;26.73;;;;;;;-0.87;100.00;101757.81;1031497;28;20312;-74
2022/12/19 00:20:20;;;;;;;43.12;28.26;;;;;;;-0.82;100.00;101762.69;1026791;28;20297;-74
2022/12/19 00:21:00;;;;;;;47.10;30.20;;;;;;;-0.84;100.00;101759.38;1023567;28;20152;-74
2022/12/19 00:21:33;;;;;;;43.80;27.60;;;;;;;-0.85;100.00;101762.94;1015756;29;20398;-74
2022/12/19 00:22:05;;;;;;;52.05;29.60;;;;;;;-0.86;100.00;101771.72;1015421;29;20436;-74
2022/12/19 00:22:44;;;;;;;54.15;29.50;;;;;;;-0.85;100.00;101774.22;1022678;28;20383;-76
2022/12/19 00:23:16;;;;;;;43.63;29.15;;;;;;;-0.76;100.00;101778.75;1021447;28;20865;-82
2022/12/19 00:23:48;;;;;;;47.42;27.80;;;;;;;-0.77;100.00;101777.09;1027776;28;20325;-82
2022/12/19 00:24:19;;;;;;;54.78;30.20;;;;;;;-0.75;100.00;101769.13;1019815;29;20307;-82
2022/12/19 00:24:52;;;;;;;48.03;29.25;;;;;;;-0.75;100.00;101769.97;1016393;29;20332;-82
2022/12/19 00:25:23;;;;;;;44.53;28.65;;;;;;;-0.76;100.00;101767.47;1019100;29;20314;-82
2022/12/19 00:26:13;;;;;;;52.20;30.98;;;;;;;-0.74;100.00;101770.78;1014930;29;20296;-82
2022/12/19 00:26:44;;;;;;;46.83;26.65;;;;;;;-0.80;100.00;101766.06;1026394;28;20800;-76
2022/12/19 00:27:16;;;;;;;48.33;30.42;;;;;;;-0.74;100.00;101765.56;1028212;28;20301;-74
2022/12/19 00:27:48;;;;;;;51.68;29.38;;;;;;;-0.75;100.00;101764.72;1027682;28;20301;-74
2022/12/19 00:28:22;;;;;;;48.08;29.08;;;;;;;-0.77;100.00;101760.56;1028415;28;20043;-78
2022/12/19 00:28:57;;;;;;;52.45;28.98;;;;;;;-0.70;100.00;101762.56;1029256;28;20314;-79
2022/12/19 00:29:28;;;;;;;54.52;28.96;;;;;;;-0.63;100.00;101760.31;1023658;28;20307;-82
2022/12/19 00:30:00;;;;;;;47.63;28.73;;;;;;;-0.71;100.00;101760.09;1024126;28;20047;-82
2022/12/19 00:30:31;;;;;;;49.90;28.60;;;;;;;-0.68;100.00;101762.47;1024290;29;20302;-82
2022/12/19 00:31:06;;;;;;;51.65;29.58;;;;;;;-0.66;100.00;101763.16;1022453;29;20345;-74
2022/12/19 00:31:38;;;;;;;50.10;29.92;;;;;;;-0.73;100.00;101772.47;1015057;29;20304;-78
2022/12/19 00:32:10;;;;;;;47.05;30.17;;;;;;;-0.74;100.00;101768.19;1020618;28;20307;-76
2022/12/19 00:32:46;;;;;;;47.08;27.92;;;;;;;-0.75;100.00;101767.34;1016007;29;20359;-74
2022/12/19 00:33:18;;;;;;;48.28;30.26;;;;;;;-0.77;100.00;101760.56;1018814;29;20728;-75
2022/12/19 00:33:49;;;;;;;48.30;30.83;;;;;;;-0.71;100.00;101762.69;1022579;28;20047;-82
2022/12/19 00:34:21;;;;;;;48.25;30.17;;;;;;;-0.71;100.00;101754.84;1020972;29;20314;-82
2022/12/19 00:34:52;;;;;;;49.76;26.18;;;;;;;-0.71;100.00;101760.91;1025307;28;20306;-82
2022/12/19 00:35:24;;;;;;;46.33;28.60;;;;;;;-0.63;100.00;101768.97;1020056;29;20051;-82
2022/12/19 00:35:59;;;;;;;46.80;28.80;;;;;;;-0.62;100.00;101759.34;1020377;29;20310;-82
2022/12/19 00:36:33;;;;;;;50.83;29.63;;;;;;;-0.59;100.00;101759.09;1018905;29;20785;-82
2022/12/19 00:37:04;;;;;;;49.02;29.30;;;;;;;-0.64;100.00;101756.03;1020247;28;20391;-83
2022/12/19 00:37:36;;;;;;;50.76;28.36;;;;;;;-0.62;100.00;101767.19;1029013;28;20046;-81
2022/12/19 00:38:11;;;;;;;46.05;27.83;;;;;;;-0.58;100.00;101752.09;1031360;28;20417;-75
2022/12/19 00:38:44;;;;;;;47.35;28.73;;;;;;;-0.61;100.00;101761.00;1021238;29;20483;-82
2022/12/19 00:39:16;;;;;;;46.97;29.63;;;;;;;-0.64;100.00;101758.66;1022857;29;20314;-82
2022/12/19 00:39:49;;;;;;;46.26;28.90;;;;;;;-0.65;100.00;101759.59;1020247;29;20335;-82
2022/12/19 00:40:21;;;;;;;47.30;28.96;;;;;;;-0.57;100.00;101756.38;1022189;28;20084;-82
2022/12/19 00:40:54;;;;;;;45.33;29.63;;;;;;;-0.56;100.00;101758.03;1025126;28;20051;-78
2022/12/19 00:41:28;;;;;;;49.97;29.50;;;;;;;-0.63;100.00;101755.91;1021252;29;20303;-74
2022/12/19 00:42:00;;;;;;;49.45;28.05;;;;;;;-0.54;100.00;101759.59;1018717;29;20295;-82
2022/12/19 00:42:31;;;;;;;48.85;31.00;;;;;;;-0.55;100.00;101757.06;1020398;29;20347;-82
2022/12/19 00:43:03;;;;;;;47.78;29.24;;;;;;;-0.55;100.00;101757.91;1020251;28;20872;-82
2022/12/19 00:43:35;;;;;;;47.92;27.70;;;;;;;-0.60;100.00;101752.22;1023905;28;20429;-83
2022/12/19 00:44:10;;;;;;;48.00;29.40;;;;;;;-0.60;100.00;101751.38;1018936;29;20310;-82
2022/12/19 00:44:46;;;;;;;44.50;28.83;;;;;;;-0.53;100.00;101758.66;1017162;29;20495;-82
2022/12/19 00:45:17;;;;;;;43.75;27.83;;;;;;;-0.55;100.00;101755.28;1015687;29;20441;-82
2022/12/19 00:45:49;;;;;;;55.03;30.92;;;;;;;-0.57;100.00;101751.97;1013240;29;20312;-82
2022/12/19 00:46:21;;;;;;;49.33;28.80;;;;;;;-0.48;100.00;101740.78;1012734;29;20309;-82
2022/12/19 00:46:53;;;;;;;49.13;30.52;;;;;;;-0.48;100.00;101756.50;1018811;29;20311;-83
2022/12/19 00:47:27;;;;;;;46.35;27.85;;;;;;;-0.48;100.00;101745.19;1024321;28;20303;-82
2022/12/19 00:47:58;;;;;;;49.67;29.15;;;;;;;-0.49;100.00;101754.00;1024391;28;20294;-82
2022/12/19 00:48:31;;;;;;;46.78;27.52;;;;;;;-0.55;100.00;101755.28;1023575;28;20809;-82
2022/12/19 00:49:02;;;;;;;48.58;29.45;;;;;;;-0.51;100.00;101745.44;1023836;29;20524;-82
2022/12/19 00:49:34;;;;;;;45.92;27.85;;;;;;;-0.49;100.00;101748.75;1020801;28;20315;-82
2022/12/19 00:50:07;;;;;;;46.38;27.48;;;;;;;-0.51;100.00;101743.66;1020298;28;21621;-82
2022/12/19 00:50:39;;;;;;;47.47;27.60;;;;;;;-0.51;100.00;101741.03;1026029;28;20314;-83
2022/12/19 00:51:13;;;;;;;45.10;28.20;;;;;;;-0.44;100.00;101736.97;1023381;28;20847;-82
2022/12/19 00:51:46;;;;;;;43.00;30.00;;;;;;;-0.50;100.00;101739.25;1017065;29;20304;-82
2022/12/19 00:52:17;;;;;;;48.50;27.25;;;;;;;-0.45;100.00;101740.53;1019339;29;20315;-82
2022/12/19 00:52:49;;;;;;;46.38;28.40;;;;;;;-0.42;100.00;101747.31;1019489;29;20319;-82
2022/12/19 00:53:20;;;;;;;45.40;27.98;;;;;;;-0.45;100.00;101735.31;1019622;29;20307;-82
2022/12/19 00:53:53;;;;;;;49.00;29.52;;;;;;;-0.41;100.00;101726.25;1020123;28;20322;-82
2022/12/19 00:54:25;;;;;;;42.55;27.65;;;;;;;-0.37;100.00;101732.06;1026690;28;20306;-82
2022/12/19 00:54:57;;;;;;;45.58;28.25;;;;;;;-0.38;100.00;101728.63;1027107;28;20313;-82
2022/12/19 00:55:29;;;;;;;44.15;27.20;;;;;;;-0.44;100.00;101726.50;1026435;28;20310;-82
2022/12/19 00:56:02;;;;;;;53.15;27.52;;;;;;;-0.39;100.00;101729.56;1030833;28;20293;-82
2022/12/19 00:56:35;;;;;;;44.30;26.00;;;;;;;-0.35;100.00;101735.38;1026776;28;20825;-82
2022/12/19 00:57:10;;;;;;;44.15;28.80;;;;;;;-0.38;100.00;101736.47;1025713;28;20469;-83
2022/12/19 00:57:45;;;;;;;53.58;30.33;;;;;;;-0.35;100.00;101738.00;1020335;29;20333;-74
2022/12/19 00:58:19;;;;;;;48.75;29.25;;;;;;;-0.26;100.00;101736.47;1017504;29;20292;-74
2022/12/19 00:58:52;;;;;;;55.08;29.75;;;;;;;-0.35;100.00;101738.84;1018943;29;20363;-75
2022/12/19 00:59:24;;;;;;;46.42;28.30;;;;;;;-0.37;100.00;101737.31;1018756;29;20311;-73
2022/12/19 00:59:59;;;;;;;42.72;27.25;;;;;;;-0.43;100.00;101738.63;1025179;28;20302;-75
2022/12/19 01:00:31;;;;;;;42.95;28.25;;;;;;;-0.45;100.00;101751.00;1028640;28;20309;-75
2022/12/19 01:01:08;;;;;;;46.90;28.20;;;;;;;-0.39;100.00;101745.28;1027533;28;20306;-74
2022/12/19 01:01:40;;;;;;;43.70;26.98;;;;;;;-0.37;100.00;101753.84;1019151;29;20317;-75
2022/12/19 01:02:12;;;;;;;48.60;27.42;;;;;;;-0.29;100.00;101744.53;1019788;29;20291;-75
2022/12/19 01:02:44;;;;;;;53.53;29.73;;;;;;;-0.33;100.00;101743.94;1019669;29;20845;-75
2022/12/19 01:03:16;;;;;;;53.17;29.73;;;;;;;-0.37;100.00;101738.13;1019084;29;20326;-76
2022/12/19 01:03:48;;;;;;;50.80;30.08;;;;;;;-0.39;100.00;101742.66;1023544;28;20309;-75
2022/12/19 01:04:39;;;;;;;46.20;26.42;;;;;;;-0.32;100.00;101735.97;1017593;29;20402;-73
2022/12/19 01:05:17;;;;;;;47.67;27.33;;;;;;;-0.28;100.00;101735.72;1022833;28;20296;-75
2022/12/19 01:05:50;;;;;;;47.65;27.85;;;;;;;-0.31;100.00;101732.41;1027315;28;20788;-74
2022/12/19 01:06:22;;;;;;;49.75;28.52;;;;;;;-0.34;100.00;101735.25;1027539;28;20302;-76
2022/12/19 01:06:53;;;;;;;42.35;27.42;;;;;;;-0.36;100.00;101734.56;1024021;28;20306;-75
2022/12/19 01:07:35;;;;;;;51.25;29.80;;;;;;;-0.35;100.00;101728.38;1023747;28;20370;-75
2022/12/19 01:08:06;;;;;;;50.33;30.83;;;;;;;-0.33;100.00;101734.31;1019194;28;20698;-74
2022/12/19 01:08:38;;;;;;;53.25;29.67;;;;;;;-0.33;100.00;101738.72;1023292;28;20306;-76
2022/12/19 01:09:11;;;;;;;46.97;29.17;;;;;;;-0.39;100.00;101732.19;1023442;28;20325;-76
2022/12/19 01:09:42;;;;;;;44.75;27.23;;;;;;;-0.32;100.00;101735.97;1019474;29;20299;-76
2022/12/19 01:10:16;;;;;;;48.25;28.73;;;;;;;-0.41;100.00;101741.94;1018980;29;20351;-76
2022/12/19 01:10:48;;;;;;;47.13;29.52;;;;;;;-0.39;100.00;101750.50;1019785;29;20302;-76
2022/12/19 01:12:44;;;;;;;45.70;27.58;;;;;;;-0.35;100.00;101735.38;1020616;29;20299;-75
2022/12/19 01:13:02;;;;;;;46.33;27.40;;;;;;;-0.43;100.00;101728.16;1019767;28;20378;-75
2022/12/19 01:13:35;;;;;;;50.30;28.17;;;;;;;-0.27;100.00;101730.38;1019104;28;20347;-75
2022/12/19 01:14:15;;;;;;;45.80;28.80;;;;;;;-0.32;100.00;101719.44;1022721;29;20334;-75
2022/12/19 01:14:54;;;;;;;44.78;26.00;;;;;;;-0.38;100.00;101710.28;1023580;29;20732;-75
2022/12/19 01:15:38;;;;;;;48.97;26.90;;;;;;;-0.28;100.00;101704.31;1027482;28;20309;-75
2022/12/19 01:16:11;;;;;;;46.53;26.30;;;;;;;-0.39;100.00;101697.34;1030764;28;20293;-75
2022/12/19 01:16:43;;;;;;;48.20;29.23;;;;;;;-0.46;100.00;101702.25;1026199;28;20329;-76
2022/12/19 01:17:15;;;;;;;50.22;28.98;;;;;;;-0.44;100.00;101692.47;1020487;29;20884;-82
2022/12/19 01:17:47;;;;;;;50.03;28.50;;;;;;;-0.44;100.00;101687.25;1020212;29;20323;-75
2022/12/19 01:18:19;;;;;;;54.38;28.17;;;;;;;-0.44;100.00;101694.25;1019285;29;20326;-76
2022/12/19 01:18:51;;;;;;;52.97;30.42;;;;;;;-0.42;100.00;101687.94;1021217;29;20304;-82
2022/12/19 01:19:23;;;;;;;45.85;26.27;;;;;;;-0.39;100.00;101681.63;1015232;29;20719;-82
2022/12/19 01:19:56;;;;;;;53.13;30.38;;;;;;;-0.39;100.00;101687.69;1015009;29;20367;-82
2022/12/19 01:20:27;;;;;;;49.20;30.45;;;;;;;-0.46;100.00;101683.91;1020096;29;20287;-82
2022/12/19 01:21:08;;;;;;;49.10;28.88;;;;;;;-0.39;100.00;101677.22;1019043;28;20967;-82
2022/12/19 01:21:40;;;;;;;47.63;28.80;;;;;;;-0.40;100.00;101686.03;1020078;28;20347;-82
2022/12/19 01:22:13;;;;;;;44.92;28.00;;;;;;;-0.38;100.00;101678.88;1021505;29;20381;-82
2022/12/19 01:22:45;;;;;;;48.97;29.85;;;;;;;-0.42;100.00;101667.00;1017285;29;20395;-82
2022/12/19 01:23:17;;;;;;;43.70;26.80;;;;;;;-0.38;100.00;101671.03;1016144;29;20452;-82
2022/12/19 01:23:48;;;;;;;45.90;27.48;;;;;;;-0.35;100.00;101665.56;1015105;29;20296;-82
2022/12/19 01:24:20;;;;;;;52.42;30.30;;;;;;;-0.35;100.00;101660.31;1007892;29;20317;-82
2022/12/19 01:24:53;;;;;;;49.35;27.85;;;;;;;-0.37;100.00;101669.25;1020756;29;20300;-79
2022/12/19 01:25:24;;;;;;;46.67;29.65;;;;;;;-0.40;100.00;101659.03;1022106;29;20393;-81
2022/12/19 01:25:56;;;;;;;54.38;30.08;;;;;;;-0.35;100.00;101657.69;1026606;28;20988;-82
2022/12/19 01:26:28;;;;;;;49.33;29.13;;;;;;;-0.41;100.00;101652.97;1026939;28;20313;-83
2022/12/19 01:26:59;;;;;;;47.35;29.27;;;;;;;-0.40;100.00;101659.03;1015215;29;20823;-82
2022/12/19 01:27:31;;;;;;;51.03;31.23;;;;;;;-0.40;100.00;101656.41;1018342;29;20319;-83
2022/12/19 01:28:05;;;;;;;48.92;30.38;;;;;;;-0.40;100.00;101656.41;1020858;29;20421;-75
2022/12/19 01:28:36;;;;;;;54.08;29.80;;;;;;;-0.41;100.00;101660.81;1016774;29;20372;-82
2022/12/19 01:29:08;;;;;;;53.45;30.35;;;;;;;-0.48;100.00;101656.22;1020854;29;20353;-82
2022/12/19 01:29:39;;;;;;;52.05;30.08;;;;;;;-0.41;100.00;101650.34;1015291;29;20654;-81
2022/12/19 01:30:24;;;;;;;54.55;31.75;;;;;;;-0.37;100.00;101654.38;1018148;29;20292;-81
2022/12/19 01:30:56;;;;;;;54.70;31.52;;;;;;;-0.35;100.00;101647.22;1026305;28;20310;-75
2022/12/19 01:31:28;;;;;;;52.63;30.60;;;;;;;-0.36;100.00;101658.66;1028472;28;20313;-76
2022/12/19 01:31:59;;;;;;;48.85;30.52;;;;;;;-0.34;100.00;101664.59;1023907;28;20860;-76
2022/12/19 01:32:34;;;;;;;48.70;29.23;;;;;;;-0.32;100.00;101661.84;1026970;28;20298;-75
2022/12/19 01:33:05;;;;;;;49.92;28.40;;;;;;;-0.36;100.00;101658.66;1022746;28;20399;-76
2022/12/19 01:33:39;;;;;;;50.40;30.73;;;;;;;-0.30;100.00;101659.94;1018735;29;20323;-75
2022/12/19 01:34:13;;;;;;;45.10;28.75;;;;;;;-0.39;100.00;101658.91;1019596;29;20307;-76
2022/12/19 01:34:45;;;;;;;47.75;28.45;;;;;;;-0.38;100.00;101660.56;1016512;29;20300;-76
2022/12/19 01:35:17;;;;;;;55.55;32.33;;;;;;;-0.36;100.00;101661.28;1012181;29;20320;-76
2022/12/19 01:35:52;;;;;;;55.25;30.58;;;;;;;-0.34;100.00;101648.88;1015519;29;20380;-76
2022/12/19 01:36:24;;;;;;;52.10;30.60;;;;;;;-0.33;100.00;101645.31;1016354;29;20303;-76
2022/12/19 01:36:55;;;;;;;52.90;30.05;;;;;;;-0.37;100.00;101638.69;1017386;29;20419;-76
2022/12/19 01:37:27;;;;;;;51.25;29.30;;;;;;;-0.37;100.00;101633.44;1017476;28;20315;-76
2022/12/19 01:38:01;;;;;;;52.17;28.92;;;;;;;-0.28;100.00;101624.00;1018450;28;20403;-75
2022/12/19 01:38:39;;;;;;;48.80;28.23;;;;;;;-0.35;100.00;101631.53;1021417;29;20682;-75
2022/12/19 01:39:11;;;;;;;51.60;31.33;;;;;;;-0.32;100.00;101640.91;1024883;28;20302;-76
2022/12/19 01:39:42;;;;;;;54.53;31.48;;;;;;;-0.38;100.00;101634.41;1020188;28;20601;-76
2022/12/19 01:40:17;;;;;;;45.85;30.02;;;;;;;-0.33;100.00;101629.59;1023348;28;20322;-75
2022/12/19 01:40:54;;;;;;;55.80;32.85;;;;;;;-0.38;100.00;101625.72;1023082;29;20306;-77
2022/12/19 01:41:26;;;;;;;51.63;30.23;;;;;;;-0.36;100.00;101632.47;1025112;28;20302;-75
2022/12/19 01:41:57;;;;;;;51.75;30.88;;;;;;;-0.37;100.00;101627.38;1022392;28;20323;-76
2022/12/19 01:42:34;;;;;;;49.05;28.17;;;;;;;-0.29;100.00;101626.75;1020516;29;20310;-75
2022/12/19 01:43:12;;;;;;;54.42;32.75;;;;;;;-0.25;100.00;101633.41;1016755;29;20686;-75
2022/12/19 01:43:56;;;;;;;52.63;32.70;;;;;;;-0.31;100.00;101645.19;1015183;29;20651;-75
2022/12/19 01:44:30;;;;;;;49.33;29.92;;;;;;;-0.34;100.00;101643.66;1015666;29;21003;-75
2022/12/19 01:45:07;;;;;;;56.58;31.60;;;;;;;-0.36;100.00;101645.56;1025365;28;20301;-75
2022/12/19 01:45:45;;;;;;;56.53;31.75;;;;;;;-0.34;100.00;101643.66;1023365;28;20303;-75
2022/12/19 01:46:36;;;;;;;54.25;31.30;;;;;;;-0.28;100.00;101636.25;1020120;28;20300;-75
2022/12/19 01:47:10;;;;;;;53.15;30.70;;;;;;;-0.29;100.00;101639.81;1010744;29;20359;-75
2022/12/19 01:47:56;;;;;;;55.33;29.55;;;;;;;-0.32;100.00;101635.69;1018609;29;20296;-75
2022/12/19 01:48:36;;;;;;;53.20;31.75;;;;;;;-0.30;100.00;101649.47;1014933;29;20304;-75
2022/12/19 01:49:44;;;;;;;49.33;30.33;;;;;;;-0.33;100.00;101634.84;1015507;29;20304;-75
2022/12/19 01:50:24;;;;;;;60.78;31.67;;;;;;;-0.32;100.00;101644.34;1028852;28;20436;-76
2022/12/19 01:50:58;;;;;;;51.03;31.58;;;;;;;-0.28;100.00;101641.47;1027502;28;20306;-76
2022/12/19 01:51:41;;;;;;;53.05;32.92;;;;;;;-0.31;100.00;101646.00;1027766;28;20460;-75
2022/12/19 01:52:13;;;;;;;54.75;32.53;;;;;;;-0.38;100.00;101636.19;1022764;28;20354;-75
2022/12/19 01:52:55;;;;;;;59.80;33.25;;;;;;;-0.28;100.00;101642.31;1016717;29;20303;-75
2022/12/19 01:53:31;;;;;;;56.72;32.63;;;;;;;-0.27;100.00;101645.75;1021675;28;20876;-75
2022/12/19 01:54:06;;;;;;;58.05;33.30;;;;;;;-0.33;100.00;101640.06;1019569;29;20303;-75
2022/12/19 01:54:39;;;;;;;64.07;33.60;;;;;;;-0.24;100.00;101621.97;1019438;29;20303;-76
2022/12/19 01:55:11;;;;;;;57.30;32.50;;;;;;;-0.29;100.00;101639.81;1011349;29;20404;-75
2022/12/19 01:55:43;;;;;;;53.95;32.17;;;;;;;-0.31;100.00;101643.41;1015346;29;20319;-75
2022/12/19 01:56:17;;;;;;;57.35;33.10;;;;;;;-0.33;100.00;101640.06;1022612;29;20299;-75
2022/12/19 01:56:51;;;;;;;57.97;34.25;;;;;;;-0.27;100.00;101630.06;1020267;28;20307;-76
2022/12/19 01:57:22;;;;;;;62.22;33.72;;;;;;;-0.25;100.00;101622.94;1014656;29;20659;-75
2022/12/19 01:57:55;;;;;;;53.45;33.70;;;;;;;-0.27;100.00;101624.81;1011221;29;20301;-75
2022/12/19 01:58:27;;;;;;;64.35;34.22;;;;;;;-0.29;100.00;101651.13;1012013;29;20372;-75
2022/12/19 01:59:06;;;;;;;58.35;33.80;;;;;;;-0.25;100.00;101636.03;1011401;29;20320;-75
2022/12/19 01:59:46;;;;;;;57.60;33.42;;;;;;;-0.20;100.00;101626.81;1015495;29;20346;-75
2022/12/19 02:00:18;;;;;;;53.63;32.80;;;;;;;-0.16;100.00;101619.53;1021531;29;20373;-76
2022/12/19 02:00:51;;;;;;;57.30;33.50;;;;;;;-0.21;100.00;101635.63;1027821;28;20313;-75
2022/12/19 02:01:24;;;;;;;57.25;34.63;;;;;;;-0.18;100.00;101632.75;1026453;28;20322;-82
2022/12/19 02:02:03;;;;;;;59.45;33.28;;;;;;;-0.22;100.00;101630.53;1025062;28;20554;-80
2022/12/19 02:02:52;;;;;;;62.70;31.33;;;;;;;-0.17;100.00;101625.75;1016229;29;20795;-82
2022/12/19 02:03:27;;;;;;;59.20;32.40;;;;;;;-0.11;100.00;101607.72;1015063;29;20307;-81
2022/12/19 02:04:00;;;;;;;51.85;33.70;;;;;;;-0.11;100.00;101612.13;1023619;29;20706;-82
2022/12/19 02:04:32;;;;;;;57.50;35.28;;;;;;;-0.11;100.00;101620.81;1023929;28;20306;-75
2022/12/19 02:05:04;;;;;;;64.35;35.67;;;;;;;-0.21;100.00;101626.94;1020691;29;20299;-75
2022/12/19 02:05:37;;;;;;;53.58;32.20;;;;;;;-0.23;100.00;101624.47;1022909;28;20879;-75
2022/12/19 02:06:09;;;;;;;60.92;34.63;;;;;;;-0.25;100.00;101617.69;1017845;29;20315;-75
2022/12/19 02:06:41;;;;;;;57.35;33.47;;;;;;;-0.19;100.00;101602.31;1013637;29;20703;-75
2022/12/19 02:07:15;;;;;;;56.30;33.28;;;;;;;-0.21;100.00;101611.25;1014517;29;20304;-75
2022/12/19 02:07:48;;;;;;;55.90;34.25;;;;;;;-0.23;100.00;101610.53;1015259;29;20304;-75
2022/12/19 02:08:20;;;;;;;60.33;34.22;;;;;;;-0.22;100.00;101607.81;1015316;29;20316;-75
2022/12/19 02:08:52;;;;;;;60.13;36.00;;;;;;;-0.23;100.00;101614.00;1015025;29;20383;-75
2022/12/19 02:09:24;;;;;;;58.17;35.72;;;;;;;-0.26;100.00;101616.88;1015143;29;20557;-75
2022/12/19 02:09:57;;;;;;;63.67;35.28;;;;;;;-0.24;100.00;101614.13;1019342;29;20318;-81
2022/12/19 02:10:37;;;;;;;58.50;33.50;;;;;;;-0.23;100.00;101607.94;1022018;29;20315;-81
2022/12/19 02:11:09;;;;;;;61.85;36.42;;;;;;;-0.26;100.00;101616.03;1021639;28;20322;-81
2022/12/19 02:11:41;;;;;;;59.83;34.75;;;;;;;-0.25;100.00;101609.84;1022485;29;20694;-82
2022/12/19 02:12:13;;;;;;;57.47;35.00;;;;;;;-0.30;100.00;101618.06;1021079;29;20304;-82
2022/12/19 02:12:45;;;;;;;62.40;34.67;;;;;;;-0.24;100.00;101616.75;1018841;29;20303;-82
2022/12/19 02:13:20;;;;;;;67.85;35.30;;;;;;;-0.22;100.00;101620.06;1016388;29;20307;-75
2022/12/19 02:13:52;;;;;;;67.15;39.00;;;;;;;-0.21;100.00;101606.84;1023664;28;20314;-82
2022/12/19 02:14:24;;;;;;;63.60;37.58;;;;;;;-0.26;100.00;101613.41;1018727;29;20319;-81
2022/12/19 02:14:57;;;;;;;60.78;36.15;;;;;;;-0.24;100.00;101616.75;1027085;28;20301;-82
2022/12/19 02:16:06;;;;;;;63.30;36.63;;;;;;;-0.14;100.00;101604.53;1018981;29;20802;-75
2022/12/19 02:16:49;;;;;;;55.40;32.05;;;;;;;-0.17;100.00;101603.00;1027410;28;20305;-81
2022/12/19 02:17:30;;;;;;;55.15;33.78;;;;;;;-0.17;100.00;101599.56;1024476;28;20307;-81
2022/12/19 02:18:23;;;;;;;60.85;34.20;;;;;;;-0.09;100.00;101599.75;1016984;29;20307;-82
2022/12/19 02:19:09;;;;;;;57.30;32.70;;;;;;;-0.13;100.00;101608.81;1019595;28;20441;-81
2022/12/19 02:20:02;;;;;;;56.72;33.08;;;;;;;-0.06;100.00;101599.47;1019598;28;20346;-81
2022/12/19 02:20:53;;;;;;;55.08;33.45;;;;;;;-0.15;100.00;101600.25;1022292;28;20810;-81
2022/12/19 02:21:57;;;;;;;57.63;33.55;;;;;;;-0.17;100.00;101596.94;1018962;28;20040;-81
2022/12/19 02:22:47;;;;;;;57.30;32.17;;;;;;;-0.17;100.00;101604.78;1017768;29;20300;-81
2022/12/19 02:23:51;;;;;;;53.60;31.77;;;;;;;-0.12;100.00;101603.44;1019137;29;20066;-81
2022/12/19 02:24:58;;;;;;;60.67;31.10;;;;;;;-0.02;100.00;101598.25;1026343;28;20042;-81
2022/12/19 02:25:48;;;;;;;58.35;30.08;;;;;;;0.02;100.00;101596.25;1025257;28;20826;-81
2022/12/19 02:26:47;;;;;;;59.20;31.02;;;;;;;-0.01;100.00;101602.53;1019435;29;20690;-81
2022/12/19 02:27:39;;;;;;;59.35;28.90;;;;;;;0.01;100.00;101595.41;1022285;29;20303;-81
2022/12/19 02:28:24;;;;;;;60.20;30.33;;;;;;;-0.08;100.00;101597.00;1017488;29;20425;-81
2022/12/19 02:29:08;;;;;;;53.50;25.17;;;;;;;-0.11;100.00;101601.66;1019113;29;20843;-81
2022/12/19 02:30:06;;;;;;;51.35;28.98;;;;;;;-0.06;100.00;101594.25;1019872;28;20331;-81
2022/12/19 02:30:52;;;;;;;50.53;26.60;;;;;;;0.01;100.00;101599.81;1032972;28;20839;-81
2022/12/19 02:31:31;;;;;;;55.63;26.92;;;;;;;0.04;100.00;101587.28;1025374;28;20310;-81
2022/12/19 02:32:09;;;;;;;52.63;26.63;;;;;;;0.01;100.00;101590.19;1019495;29;20315;-81
2022/12/19 02:32:52;;;;;;;51.65;28.23;;;;;;;0.04;100.00;101583.84;1011200;29;20315;-81
2022/12/19 02:33:32;;;;;;;51.03;28.13;;;;;;;0.06;100.00;101588.00;1017961;29;20311;-81
2022/12/19 02:34:14;;;;;;;;;;;;;;;0.05;100.00;101585.50;1023447;29;20425;-81
2022/12/19 02:35:06;;;;;;;47.42;23.15;;;;;;;0.02;100.00;101585.75;1023505;28;19922;-81
2022/12/19 02:35:46;;;;;;;49.70;26.20;;;;;;;0.03;100.00;101588.25;1019336;28;20311;-81
2022/12/19 02:36:21;;;;;;;50.75;27.35;;;;;;;-0.03;100.00;101594.81;1019946;28;20313;-81
2022/12/19 02:37:07;;;;;;;55.88;27.83;;;;;;;-0.02;100.00;101590.41;1018858;29;20347;-81
2022/12/19 02:38:11;;;;;;;50.83;28.50;;;;;;;0.10;100.00;101583.31;1019070;29;20839;-81
2022/12/19 02:38:53;;;;;;;51.28;26.83;;;;;;;0.11;100.00;101577.94;1015044;28;20305;-79
2022/12/19 02:39:49;;;;;;;49.63;28.30;;;;;;;0.05;100.00;101580.25;1025667;28;20306;-81
2022/12/19 02:40:32;;;;;;;56.22;28.25;;;;;;;0.09;100.00;101582.50;1027190;28;20302;-81
2022/12/19 02:41:12;;;;;;;48.40;26.38;;;;;;;0.19;100.00;101570.25;1019039;29;20312;-81